Mayfield, Utah
Current Conditions -  °F | °C
As of 11:55 PM on Thursday 30 Oct 2014 (Local Time) from KDTA Reporting Station
Clear Clear  
Wind Chill: 45°   Ceiling: Unl
Heat Index: 48°   Visibility: 10mi
Dew Point: 21°   Wind: 6mph
Humidity: 35%   Direction: 110°ESE
Pressure: 30.11"   Gusts: NA
Location:  39.11°N, 111.71°W
Report Text: KDTA 310555Z AUTO 11005KT 10SM CLR 09/M06 A3011 RMK AO1 T00891059 10351 21033
Loading
Personal Weather Stations






























Interactive Weather Map
Tropical Storm Tracking
New forecast layout! Learn more

10-Day Weather Forecast

Advertisements
Track Severe Weather on mobile